createdAt,value
2023-05-10T00:00:35.017Z,98832.97
2023-05-10T00:03:05.629Z,98815.97
2023-05-10T00:05:33.561Z,98816.66
2023-05-10T00:08:02.712Z,98808.84
2023-05-10T00:10:30.552Z,98808.16
2023-05-10T00:12:58.354Z,98788.22
2023-05-10T00:15:26.154Z,98764.09
2023-05-10T00:17:54.055Z,98751.22
2023-05-10T00:20:22.046Z,98784.03
2023-05-10T00:22:49.950Z,98763.63
2023-05-10T00:25:19.940Z,98720.16
2023-05-10T00:27:47.816Z,98717.78
2023-05-10T00:30:16.152Z,98671.94
2023-05-10T00:32:44.688Z,98671.78
2023-05-10T00:35:12.423Z,98701.47
2023-05-10T00:37:40.335Z,98679.75
2023-05-10T00:40:09.531Z,98652.13
2023-05-10T00:42:38.729Z,98682.53
2023-05-10T00:45:08.208Z,98702.16
2023-05-10T00:47:36.965Z,98683.38
2023-05-10T00:50:05.730Z,98672.19
2023-05-10T00:52:33.643Z,98663.56
2023-05-10T00:55:02.434Z,98649.75
2023-05-10T00:57:30.477Z,98662.72
2023-05-10T01:00:01.326Z,98629.97
2023-05-10T01:02:29.741Z,98608.69
2023-05-10T01:04:57.660Z,98611.88
2023-05-10T01:07:25.462Z,98594.75
2023-05-10T01:09:53.461Z,98590.00
2023-05-10T01:12:21.974Z,98556.03
2023-05-10T01:14:50.528Z,98556.72
2023-05-10T01:17:20.141Z,98560.19
2023-05-10T01:19:48.342Z,98507.03
2023-05-10T01:22:41.958Z,98495.75
2023-05-10T01:25:30.445Z,98463.59
2023-05-10T01:28:26.176Z,98435.19
2023-05-10T01:31:20.709Z,98407.09
2023-05-10T01:33:56.896Z,98397.63
2023-05-10T01:36:32.760Z,98357.16
2023-05-10T01:39:07.467Z,98292.09
2023-05-10T01:41:42.136Z,98289.28
2023-05-10T01:44:18.845Z,98241.19
2023-05-10T01:46:55.358Z,98208.53
2023-05-10T01:49:28.372Z,98216.31
2023-05-10T01:52:08.443Z,98230.91
2023-05-10T01:54:40.594Z,98183.53
2023-05-10T01:57:11.093Z,98131.44
2023-05-10T01:59:41.966Z,98077.44
2023-05-10T02:02:12.950Z,98055.75
2023-05-10T02:04:44.095Z,98037.88
2023-05-10T02:07:12.659Z,98021.06
2023-05-10T02:09:40.740Z,97997.44
2023-05-10T02:12:09.683Z,97989.00
2023-05-10T02:14:39.056Z,97999.25
2023-05-10T02:17:09.695Z,97989.97
2023-05-10T02:19:40.568Z,97998.56
2023-05-10T02:22:11.019Z,97995.09
2023-05-10T02:24:40.782Z,97987.19
2023-05-10T02:27:10.858Z,97983.03
2023-05-10T02:29:39.958Z,97963.19
2023-05-10T02:32:08.387Z,97951.25
2023-05-10T02:34:36.654Z,97936.69
2023-05-10T02:37:04.931Z,97912.53
2023-05-10T02:39:34.554Z,97885.22
2023-05-10T02:42:03.833Z,97865.66
2023-05-10T02:44:32.348Z,97854.56
2023-05-10T02:47:00.928Z,97862.91
2023-05-10T02:49:28.812Z,97874.28
2023-05-10T02:52:02.137Z,97887.03
2023-05-10T02:54:37.998Z,97884.53
2023-05-10T02:57:07.933Z,97903.09
2023-05-10T02:59:35.999Z,97908.38
2023-05-10T03:02:04.284Z,97937.78
2023-05-10T03:04:32.100Z,97936.97
2023-05-10T03:07:00.234Z,97944.47
2023-05-10T03:09:28.248Z,97965.28
2023-05-10T03:12:05.271Z,97999.53
2023-05-10T03:14:47.672Z,98050.91
2023-05-10T03:17:21.649Z,98093.66
2023-05-10T03:19:55.657Z,98114.22
2023-05-10T03:22:28.321Z,98165.91
2023-05-10T03:24:58.727Z,98160.47
2023-05-10T03:27:30.053Z,98218.28
2023-05-10T03:29:58.801Z,98249.13
2023-05-10T03:32:28.128Z,98287.91
2023-05-10T03:34:55.999Z,98286.94
2023-05-10T03:37:23.764Z,98328.38
2023-05-10T03:39:51.707Z,98380.81
2023-05-10T03:42:19.807Z,98439.22
2023-05-10T03:44:50.193Z,98430.47
2023-05-10T03:47:18.054Z,98485.03
2023-05-10T03:49:46.227Z,98500.34
2023-05-10T03:52:14.249Z,98542.53
2023-05-10T03:54:42.256Z,98590.03
2023-05-10T03:57:10.613Z,98619.28
2023-05-10T03:59:38.393Z,98659.50
2023-05-10T04:02:07.514Z,98688.06
2023-05-10T04:04:35.280Z,98711.22
2023-05-10T04:07:03.200Z,98749.16
2023-05-10T04:09:31.041Z,98789.03
2023-05-10T04:11:58.831Z,98832.00
2023-05-10T04:14:26.693Z,98855.44
2023-05-10T04:16:54.529Z,98884.03
2023-05-10T04:19:23.705Z,98942.66
2023-05-10T04:21:51.476Z,98986.59
2023-05-10T04:24:19.500Z,99064.25
2023-05-10T04:26:47.548Z,99108.25
2023-05-10T04:29:15.347Z,99212.91
2023-05-10T04:31:43.330Z,99236.00
2023-05-10T04:34:11.167Z,99304.78
2023-05-10T04:36:40.306Z,99360.19
2023-05-10T04:39:08.227Z,99444.84
2023-05-10T04:41:36.171Z,99521.19
2023-05-10T04:44:04.142Z,99573.88
2023-05-10T04:46:32.357Z,99619.66
2023-05-10T04:49:01.079Z,99679.63
2023-05-10T04:51:28.934Z,99762.06
2023-05-10T04:54:05.946Z,99805.56
2023-05-10T04:56:35.602Z,99882.72
2023-05-10T04:59:03.690Z,99946.75
2023-05-10T05:01:31.523Z,99980.13
2023-05-10T05:03:59.489Z,100010.19
2023-05-10T05:06:28.256Z,100055.44
2023-05-10T05:08:56.098Z,100124.91
2023-05-10T05:11:26.551Z,100174.50
2023-05-10T05:13:54.562Z,100207.78
2023-05-10T05:16:22.501Z,100275.56
2023-05-10T05:18:50.370Z,100353.81
2023-05-10T05:21:19.132Z,100397.41
2023-05-10T05:23:47.206Z,100445.41
2023-05-10T05:26:16.050Z,100472.41
2023-05-10T05:28:45.504Z,100548.94
2023-05-10T05:31:13.306Z,100624.75
2023-05-10T05:33:41.185Z,100660.56
2023-05-10T05:36:09.224Z,100712.16
2023-05-10T05:38:37.083Z,100735.84
2023-05-10T05:41:05.052Z,100775.88
2023-05-10T05:43:32.749Z,100822.03
2023-05-10T05:46:01.906Z,100867.72
2023-05-10T05:48:31.602Z,100893.81
2023-05-10T05:50:59.644Z,100973.44
2023-05-10T05:53:27.617Z,101071.22
2023-05-10T05:55:56.078Z,101122.88
2023-05-10T05:58:24.755Z,101220.53
2023-05-10T06:00:54.260Z,101272.50
2023-05-10T06:03:23.716Z,101301.25
2023-05-10T06:05:55.749Z,101339.84
2023-05-10T06:08:23.467Z,101465.97
2023-05-10T06:10:51.198Z,101551.94
2023-05-10T06:13:19.143Z,101650.06
2023-05-10T06:15:47.296Z,101616.84
2023-05-10T06:18:15.119Z,101693.13
2023-05-10T06:20:44.939Z,101682.63
2023-05-10T06:23:12.800Z,101743.31
2023-05-10T06:25:40.563Z,101837.06
2023-05-10T06:28:08.695Z,101945.09
2023-05-10T06:30:38.632Z,101889.97
2023-05-10T06:33:06.535Z,101973.44
2023-05-10T06:35:34.700Z,102110.69
2023-05-10T06:38:03.833Z,102199.38
2023-05-10T06:40:31.638Z,102274.19
2023-05-10T06:42:59.475Z,102375.59
2023-05-10T06:45:27.316Z,102361.41
2023-05-10T06:47:55.147Z,102428.41
2023-05-10T06:50:23.131Z,102534.97
2023-05-10T06:52:53.185Z,102743.06
2023-05-10T06:55:22.771Z,102834.19
2023-05-10T06:57:51.573Z,102888.31
2023-05-10T07:00:21.126Z,102862.56
2023-05-10T07:02:49.589Z,102898.78
2023-05-10T07:05:17.911Z,102907.63
2023-05-10T07:07:45.978Z,102900.72
2023-05-10T07:10:13.751Z,103082.69
2023-05-10T07:12:42.993Z,103259.66
2023-05-10T07:15:11.492Z,103396.00
2023-05-10T07:17:39.550Z,103411.91
2023-05-10T07:20:09.245Z,103509.50
2023-05-10T07:22:37.144Z,103571.63
2023-05-10T07:25:05.329Z,103720.63
2023-05-10T07:27:33.575Z,103757.94
2023-05-10T07:30:02.697Z,103751.00
2023-05-10T07:32:30.743Z,103768.75
2023-05-10T07:34:58.672Z,103879.66
2023-05-10T07:37:26.692Z,103845.91
2023-05-10T07:39:54.467Z,103752.03
2023-05-10T07:42:22.330Z,103722.59
2023-05-10T07:44:50.109Z,103700.38
2023-05-10T07:47:19.880Z,103695.16
2023-05-10T07:49:47.697Z,103747.50
2023-05-10T07:52:16.448Z,103764.53
2023-05-10T07:54:44.326Z,103841.69
2023-05-10T07:57:12.127Z,103904.69
2023-05-10T07:59:39.921Z,104022.97
2023-05-10T08:02:08.293Z,103997.22
2023-05-10T08:04:37.554Z,103911.94
2023-05-10T08:07:05.597Z,103994.50
2023-05-10T08:09:33.437Z,104046.16
2023-05-10T08:12:02.098Z,103962.63
2023-05-10T08:14:31.477Z,104137.59
2023-05-10T08:16:59.276Z,104231.19
2023-05-10T08:19:27.079Z,104225.75
2023-05-10T08:21:56.713Z,104294.34
2023-05-10T08:24:24.922Z,104486.00
2023-05-10T08:26:52.790Z,104341.81
2023-05-10T08:29:21.610Z,104462.75
2023-05-10T08:31:49.453Z,104461.97
2023-05-10T08:34:17.426Z,104525.19
2023-05-10T08:36:45.148Z,104667.03
2023-05-10T08:39:26.610Z,104893.63
2023-05-10T08:42:03.442Z,105108.16
2023-05-10T08:44:32.967Z,105181.59
2023-05-10T08:47:04.566Z,105437.50
2023-05-10T08:49:33.791Z,105543.28
2023-05-10T08:52:06.628Z,105541.53
2023-05-10T08:54:36.526Z,105435.84
2023-05-10T08:57:04.628Z,105302.41
2023-05-10T08:59:32.957Z,105331.84
2023-05-10T09:02:01.287Z,105379.38
2023-05-10T09:04:30.326Z,105674.25
2023-05-10T09:06:59.324Z,105837.59
2023-05-10T09:09:27.847Z,105487.81
2023-05-10T09:11:57.403Z,105530.72
2023-05-10T09:14:28.167Z,105558.69
2023-05-10T09:16:56.990Z,105530.72
2023-05-10T09:19:25.041Z,105383.41
2023-05-10T09:21:52.866Z,105502.94
2023-05-10T09:24:20.815Z,105659.91
2023-05-10T09:26:50.364Z,105706.47
2023-05-10T09:29:19.576Z,105656.22
2023-05-10T09:31:49.238Z,105959.59
2023-05-10T09:34:19.972Z,106213.13
2023-05-10T09:36:55.663Z,106319.28
2023-05-10T09:39:32.426Z,106440.84
2023-05-10T09:42:00.600Z,106648.00
2023-05-10T09:44:29.790Z,106546.16
2023-05-10T09:46:58.049Z,106080.91
2023-05-10T09:49:25.986Z,106069.97
2023-05-10T09:52:04.734Z,106237.28
2023-05-10T09:54:33.128Z,106765.28
2023-05-10T09:57:01.752Z,106801.41
2023-05-10T09:59:36.218Z,106807.56
2023-05-10T10:02:04.781Z,106714.56
2023-05-10T10:04:33.825Z,106689.28
2023-05-10T10:07:03.652Z,106914.97
2023-05-10T10:09:32.078Z,106678.47
2023-05-10T10:12:01.074Z,106615.31
2023-05-10T10:14:29.439Z,106866.09
2023-05-10T10:19:30.212Z,106840.75
2023-05-10T10:21:58.613Z,107222.88
2023-05-10T10:24:26.474Z,107300.63
2023-05-10T10:26:57.327Z,107240.00
2023-05-10T10:29:28.698Z,106988.75
2023-05-10T10:32:10.064Z,106938.03
2023-05-10T10:34:37.942Z,106599.63
2023-05-10T10:37:07.648Z,106836.03
2023-05-10T10:39:37.589Z,107055.34
2023-05-10T10:42:06.521Z,107402.66
2023-05-10T10:44:42.669Z,107410.75
2023-05-10T10:47:30.123Z,107216.16
2023-05-10T10:50:06.466Z,106738.34
2023-05-10T10:52:35.524Z,106901.59
2023-05-10T10:55:06.279Z,106889.03
2023-05-10T10:57:35.716Z,106869.03
2023-05-10T11:00:26.848Z,107085.78
2023-05-10T11:02:58.140Z,107103.84
2023-05-10T11:05:40.546Z,107143.56
2023-05-10T11:08:17.292Z,107175.03
2023-05-10T11:11:04.307Z,107096.44
2023-05-10T11:13:33.923Z,106953.72
2023-05-10T11:16:12.717Z,106859.84
2023-05-10T11:18:42.178Z,106745.03
2023-05-10T11:21:11.867Z,106640.41
2023-05-10T11:23:53.211Z,106279.34
2023-05-10T11:26:24.221Z,106487.91
2023-05-10T11:28:52.269Z,107160.25
2023-05-10T11:31:21.901Z,107186.47
2023-05-10T11:33:53.093Z,106900.97
2023-05-10T11:36:22.082Z,106710.47
2023-05-10T11:38:50.583Z,106595.88
2023-05-10T11:41:20.160Z,106812.31
2023-05-10T11:43:50.027Z,106605.69
2023-05-10T11:46:21.304Z,106399.41
2023-05-10T11:48:52.228Z,106520.03
2023-05-10T11:51:24.020Z,106397.47
2023-05-10T11:53:52.608Z,106644.19
2023-05-10T11:56:21.664Z,106850.91
2023-05-10T11:58:56.484Z,107075.78
2023-05-10T12:01:24.817Z,106821.00
2023-05-10T12:03:59.619Z,106896.81
2023-05-10T12:06:32.080Z,106728.88
2023-05-10T12:09:08.084Z,106643.06
2023-05-10T12:11:43.927Z,106738.75
2023-05-10T12:14:12.538Z,106666.50
2023-05-10T12:16:40.716Z,106921.81
2023-05-10T12:19:10.185Z,106963.47
2023-05-10T12:21:39.728Z,106652.00
2023-05-10T12:24:07.777Z,106513.09
2023-05-10T12:26:37.313Z,106115.97
2023-05-10T12:32:02.409Z,106520.25
2023-05-10T12:34:36.077Z,106488.63
2023-05-10T12:37:04.894Z,106315.78
2023-05-10T12:39:42.531Z,106177.03
2023-05-10T12:42:10.441Z,106411.84
2023-05-10T12:44:38.341Z,106392.06
2023-05-10T12:47:06.873Z,106247.13
2023-05-10T12:49:36.406Z,106277.66
2023-05-10T12:52:04.291Z,106167.78
2023-05-10T12:54:32.108Z,106319.00
2023-05-10T12:57:00.069Z,106246.97
2023-05-10T12:59:27.940Z,106107.53
2023-05-10T13:01:57.156Z,106011.28
2023-05-10T13:04:26.795Z,105828.09
2023-05-10T13:06:59.470Z,105802.84
2023-05-10T13:09:27.418Z,105713.06
2023-05-10T13:11:55.281Z,105999.31
2023-05-10T13:14:23.251Z,106393.34
2023-05-10T13:16:51.135Z,106079.31
2023-05-10T13:19:19.516Z,106263.63
2023-05-10T13:21:47.492Z,106307.72
2023-05-10T13:24:16.804Z,105888.88
2023-05-10T13:26:45.188Z,105484.97
2023-05-10T13:29:13.180Z,105511.00
2023-05-10T13:31:41.002Z,105518.06
2023-05-10T13:34:08.869Z,105785.28
2023-05-10T13:36:36.648Z,105497.47
2023-05-10T13:39:06.301Z,105191.16
2023-05-10T13:41:35.562Z,105399.78
2023-05-10T13:44:03.371Z,105312.72
2023-05-10T13:46:31.649Z,105514.28
2023-05-10T13:48:59.499Z,105428.19
2023-05-10T13:51:27.418Z,105390.63
2023-05-10T13:53:55.234Z,105623.53
2023-05-10T13:56:23.084Z,105848.88
2023-05-10T13:58:53.303Z,105775.25
2023-05-10T14:01:21.190Z,105827.19
2023-05-10T14:03:49.284Z,105995.19
2023-05-10T14:06:20.915Z,105729.22
2023-05-10T14:08:48.802Z,105679.84
2023-05-10T14:11:16.633Z,105957.25
2023-05-10T14:13:44.424Z,106132.44
2023-05-10T14:16:15.734Z,106104.56
2023-05-10T14:18:43.681Z,106190.84
2023-05-10T14:21:11.520Z,105882.72
2023-05-10T14:23:39.333Z,105629.53
2023-05-10T14:26:07.462Z,105666.13
2023-05-10T14:28:35.288Z,105850.31
2023-05-10T14:31:03.473Z,106159.09
2023-05-10T14:33:32.598Z,106115.16
2023-05-10T14:36:01.058Z,105832.31
2023-05-10T14:38:28.917Z,106201.28
2023-05-10T14:40:56.995Z,106095.31
2023-05-10T14:43:24.767Z,105979.41
2023-05-10T14:45:52.705Z,105718.88
2023-05-10T14:48:22.214Z,105799.53
2023-05-10T14:50:53.547Z,106101.41
2023-05-10T14:53:21.545Z,106123.28
2023-05-10T14:55:49.320Z,105955.00
2023-05-10T14:58:17.522Z,106082.53
2023-05-10T15:00:45.572Z,106386.47
2023-05-10T15:03:14.194Z,106204.63
2023-05-10T15:05:42.547Z,106067.19
2023-05-10T15:08:13.531Z,105884.81
2023-05-10T15:10:41.330Z,105578.91
2023-05-10T15:13:09.081Z,105505.19
2023-05-10T15:15:37.110Z,105298.63
2023-05-10T15:18:05.701Z,105491.66
2023-05-10T15:20:33.534Z,105607.41
2023-05-10T15:23:01.622Z,105140.88
2023-05-10T15:25:30.916Z,105169.31
2023-05-10T15:27:59.161Z,105124.53
2023-05-10T15:30:27.035Z,104841.41
2023-05-10T15:32:54.913Z,104878.88
2023-05-10T15:35:22.926Z,104949.31
2023-05-10T15:37:50.918Z,105182.56
2023-05-10T15:40:19.049Z,105484.16
2023-05-10T15:42:48.280Z,105358.84
2023-05-10T15:45:16.843Z,105105.75
2023-05-10T15:47:45.303Z,104869.94
2023-05-10T15:50:13.423Z,104912.59
2023-05-10T15:52:41.265Z,105000.09
2023-05-10T15:55:14.164Z,104913.56
2023-05-10T15:57:42.893Z,104692.97
2023-05-10T16:00:13.938Z,104363.31
2023-05-10T16:02:42.212Z,104226.84
2023-05-10T16:05:10.893Z,104267.78
2023-05-10T16:07:39.766Z,104178.72
2023-05-10T16:10:09.768Z,103955.69
2023-05-10T16:12:37.624Z,103998.22
2023-05-10T16:15:05.990Z,103726.59
2023-05-10T16:17:35.216Z,103667.94
2023-05-10T16:20:03.167Z,103484.59
2023-05-10T16:22:31.059Z,103265.81
2023-05-10T16:25:00.760Z,103116.13
2023-05-10T16:27:30.301Z,103132.88
2023-05-10T16:29:58.275Z,103088.69
2023-05-10T16:32:26.255Z,103039.97
2023-05-10T16:34:55.410Z,102754.88
2023-05-10T16:37:23.178Z,102357.50
2023-05-10T16:39:51.050Z,102092.59
2023-05-10T16:42:19.017Z,101949.25
2023-05-10T16:44:47.596Z,101933.50
2023-05-10T16:47:15.421Z,101878.13
2023-05-10T16:49:43.289Z,101817.47
2023-05-10T16:52:12.485Z,101776.19
2023-05-10T16:54:40.345Z,101691.09
2023-05-10T16:57:08.629Z,101648.69
2023-05-10T16:59:36.537Z,101644.56
2023-05-10T17:02:04.571Z,101639.19
2023-05-10T17:04:32.430Z,101607.72
2023-05-10T17:07:00.441Z,101569.16
2023-05-10T17:09:29.627Z,101530.59
2023-05-10T17:11:57.545Z,101504.25
2023-05-10T17:14:26.160Z,101456.97
2023-05-10T17:16:55.507Z,101441.13
2023-05-10T17:19:26.434Z,101421.09
2023-05-10T17:21:54.560Z,101385.84
2023-05-10T17:24:22.423Z,101360.38
2023-05-10T17:26:51.620Z,101327.25
2023-05-10T17:29:19.470Z,101309.94
2023-05-10T17:31:47.518Z,101268.03
2023-05-10T17:34:15.379Z,101240.63
2023-05-10T17:36:43.454Z,101188.88
2023-05-10T17:39:11.287Z,101179.50
2023-05-10T17:41:39.027Z,101125.13
2023-05-10T17:44:08.422Z,101107.72
2023-05-10T17:46:36.476Z,101068.41
2023-05-10T17:49:04.345Z,101040.44
2023-05-10T17:51:32.585Z,101017.81
2023-05-10T17:54:00.353Z,100960.84
2023-05-10T17:56:28.831Z,100925.13
2023-05-10T17:58:56.767Z,100918.34
2023-05-10T18:01:25.943Z,100873.63
2023-05-10T18:03:53.875Z,100837.63
2023-05-10T18:06:21.676Z,100811.38
2023-05-10T18:08:49.444Z,100798.25
2023-05-10T18:11:18.599Z,100767.91
2023-05-10T18:13:48.061Z,100735.59
2023-05-10T18:16:16.153Z,100704.16
2023-05-10T18:18:45.391Z,100688.50
2023-05-10T18:21:13.471Z,100671.88
2023-05-10T18:23:41.193Z,100671.03
2023-05-10T18:26:09.256Z,100655.50
2023-05-10T18:28:37.578Z,100588.25
2023-05-10T18:31:05.596Z,100578.69
2023-05-10T18:33:33.484Z,100563.75
2023-05-10T18:36:02.882Z,100543.75
2023-05-10T18:38:31.011Z,100542.91
2023-05-10T18:40:58.770Z,100523.00
2023-05-10T18:43:26.646Z,100493.28
2023-05-10T18:45:54.595Z,100458.34
2023-05-10T18:48:22.456Z,100412.41
2023-05-10T18:50:50.207Z,100354.97
2023-05-10T18:53:19.379Z,100313.06
2023-05-10T18:55:47.251Z,100227.78
2023-05-10T18:58:15.081Z,100197.28
2023-05-10T19:00:43.433Z,100151.28
2023-05-10T19:03:12.069Z,100095.66
2023-05-10T19:05:39.798Z,100047.00
2023-05-10T19:08:07.734Z,99962.16
2023-05-10T19:10:37.005Z,99965.38
2023-05-10T19:13:04.979Z,99916.91
2023-05-10T19:15:33.441Z,99800.72
2023-05-10T19:18:05.109Z,99715.56
2023-05-10T19:20:33.235Z,99589.28
2023-05-10T19:23:09.546Z,99465.44
2023-05-10T19:25:39.675Z,99442.19
2023-05-10T19:28:09.676Z,99416.16
2023-05-10T19:30:37.883Z,99348.69
2023-05-10T19:33:06.113Z,99240.56
2023-05-10T19:35:34.038Z,99198.16
2023-05-10T19:38:02.143Z,99149.13
2023-05-10T19:40:29.898Z,99122.13
2023-05-10T19:43:00.494Z,99052.84
2023-05-10T19:45:28.521Z,99062.63
2023-05-10T19:47:56.417Z,99009.53
2023-05-10T19:50:24.354Z,98971.84
2023-05-10T19:52:52.421Z,98910.69
2023-05-10T19:55:28.465Z,98840.25
2023-05-10T19:57:56.687Z,98876.94
2023-05-10T20:00:27.295Z,98809.97
2023-05-10T20:02:55.400Z,98776.06
2023-05-10T20:05:23.415Z,98852.09
2023-05-10T20:07:51.587Z,98802.00
2023-05-10T20:10:19.870Z,98836.63
2023-05-10T20:12:52.439Z,98847.63
2023-05-10T20:15:21.807Z,98794.19
2023-05-10T20:17:52.716Z,98714.88
2023-05-10T20:20:21.390Z,98655.47
2023-05-10T20:22:50.448Z,98584.13
2023-05-10T20:25:19.380Z,98555.72
2023-05-10T20:27:47.298Z,98549.59
2023-05-10T20:30:15.555Z,98518.56
2023-05-10T20:32:43.715Z,98578.13
2023-05-10T20:35:13.163Z,98643.47
2023-05-10T20:37:41.883Z,98649.34
2023-05-10T20:40:11.100Z,98628.72
2023-05-10T20:42:38.927Z,98657.97
2023-05-10T20:45:07.910Z,98662.16
2023-05-10T20:47:36.832Z,98664.94
2023-05-10T20:50:05.005Z,98727.69
2023-05-10T20:52:34.141Z,98733.84
2023-05-10T20:55:02.019Z,98668.28
2023-05-10T20:57:29.846Z,98699.28
2023-05-10T20:59:58.135Z,98644.03
2023-05-10T21:02:26.116Z,98615.91
2023-05-10T21:04:57.045Z,98575.19
2023-05-10T21:07:25.624Z,98549.31
2023-05-10T21:09:54.798Z,98588.88
2023-05-10T21:12:22.585Z,98571.88
2023-05-10T21:14:50.391Z,98513.09
2023-05-10T21:17:20.001Z,98504.47
2023-05-10T21:19:48.104Z,98437.53
2023-05-10T21:22:16.082Z,98384.25
2023-05-10T21:24:44.307Z,98496.53
2023-05-10T21:27:13.455Z,98585.53
2023-05-10T21:29:41.289Z,98543.19
2023-05-10T21:32:09.652Z,98508.78
2023-05-10T21:34:37.619Z,98519.78
2023-05-10T21:37:05.451Z,98457.97
2023-05-10T21:39:33.170Z,98489.72
2023-05-10T21:42:00.919Z,98510.31
2023-05-10T21:44:30.784Z,98452.97
2023-05-10T21:46:58.505Z,98390.22
2023-05-10T21:49:26.443Z,98339.97
2023-05-10T21:51:54.345Z,98302.44
2023-05-10T21:54:22.139Z,98249.19
2023-05-10T21:56:49.863Z,98306.59
2023-05-10T21:59:18.045Z,98261.31
2023-05-10T22:01:47.390Z,98219.00
2023-05-10T22:04:15.307Z,98256.84
2023-05-10T22:06:43.118Z,98197.09
2023-05-10T22:09:11.149Z,98152.06
2023-05-10T22:11:38.988Z,98095.66
2023-05-10T22:14:07.107Z,98105.63
2023-05-10T22:16:35.530Z,98071.50
2023-05-10T22:19:06.785Z,98030.09
2023-05-10T22:21:34.684Z,98055.94
2023-05-10T22:24:02.488Z,98021.78
2023-05-10T22:26:30.574Z,97984.88
2023-05-10T22:28:58.290Z,97931.56
2023-05-10T22:31:26.195Z,97927.41
2023-05-10T22:33:54.025Z,97901.91
2023-05-10T22:36:23.299Z,97851.13
2023-05-10T22:38:51.487Z,97802.31
2023-05-10T22:41:19.331Z,97803.13
2023-05-10T22:43:47.196Z,97735.50
2023-05-10T22:46:15.368Z,97727.56
2023-05-10T22:48:44.244Z,97752.66
2023-05-10T22:51:12.087Z,97738.81
2023-05-10T22:53:41.385Z,97689.88
2023-05-10T22:56:09.208Z,97720.75
2023-05-10T22:58:36.971Z,97719.66
2023-05-10T23:01:05.410Z,97668.69
2023-05-10T23:03:33.186Z,97620.75
2023-05-10T23:06:00.973Z,97567.75
2023-05-10T23:08:28.780Z,97547.41
2023-05-10T23:10:57.865Z,97600.28
2023-05-10T23:13:25.714Z,97574.53
2023-05-10T23:15:53.679Z,97551.41
2023-05-10T23:18:21.709Z,97529.94
2023-05-10T23:20:49.449Z,97478.75
